createdAt,value
2022-11-16T00:02:38.813Z,0
2022-11-16T00:13:17.073Z,0
2022-11-16T00:18:36.783Z,0
2022-11-16T00:23:56.275Z,0
2022-11-16T00:29:15.652Z,0
2022-11-16T00:34:34.878Z,0
2022-11-16T00:39:54.226Z,0
2022-11-16T00:45:13.334Z,0
2022-11-16T00:50:32.059Z,0
2022-11-16T00:55:50.905Z,0
2022-11-16T01:01:09.769Z,0
2022-11-16T01:06:29.067Z,0
2022-11-16T01:11:48.663Z,0
2022-11-16T01:17:08.151Z,0
2022-11-16T01:22:27.880Z,0
2022-11-16T01:27:47.282Z,0
2022-11-16T01:38:29.493Z,0
2022-11-16T01:43:52.668Z,0
2022-11-16T01:49:04.006Z,0
2022-11-16T01:54:23.047Z,0
2022-11-16T01:59:42.269Z,0
2022-11-16T02:05:02.018Z,0
2022-11-16T02:15:40.633Z,0
2022-11-16T02:21:00.013Z,0
2022-11-16T02:31:39.296Z,0
2022-11-16T02:36:59.011Z,0
2022-11-16T02:42:17.889Z,0
2022-11-16T02:47:37.025Z,0
2022-11-16T02:52:56.247Z,0
2022-11-16T02:58:15.773Z,0
2022-11-16T03:03:35.145Z,0
2022-11-16T03:14:13.754Z,0
2022-11-16T03:19:33.503Z,0
2022-11-16T03:24:52.807Z,0
2022-11-16T03:30:11.919Z,0
2022-11-16T03:35:31.388Z,0
2022-11-16T03:40:50.767Z,0
2022-11-16T03:46:10.012Z,0
2022-11-16T03:56:48.170Z,0
2022-11-16T04:02:07.069Z,0
2022-11-16T04:07:26.138Z,0
2022-11-16T04:12:45.176Z,0
2022-11-16T04:18:04.732Z,0
2022-11-16T04:23:24.191Z,0
2022-11-16T04:28:43.841Z,0
2022-11-16T04:34:03.460Z,0
2022-11-16T04:39:32.250Z,0
2022-11-16T04:44:41.399Z,0
2022-11-16T04:55:20.837Z,0
2022-11-16T05:00:47.906Z,0
2022-11-16T05:05:58.896Z,0
2022-11-16T05:11:27.153Z,0
2022-11-16T05:16:37.757Z,0
2022-11-16T05:21:56.752Z,0
2022-11-16T05:27:15.527Z,0
2022-11-16T05:37:54.501Z,0
2022-11-16T05:43:13.723Z,0
2022-11-16T05:53:52.526Z,0
2022-11-16T05:59:16.276Z,0
2022-11-16T06:04:30.189Z,0
2022-11-16T06:09:57.469Z,0
2022-11-16T06:20:27.830Z,0
2022-11-16T06:25:46.898Z,0
2022-11-16T06:36:25.776Z,0.009
2022-11-16T06:41:44.834Z,0.0226
2022-11-16T06:47:04.308Z,0.03
2022-11-16T06:52:23.827Z,0.0305
2022-11-16T07:03:02.556Z,0.0306
2022-11-16T07:08:29.412Z,0.0345
2022-11-16T07:19:10.683Z,0.0374
2022-11-16T07:24:19.940Z,0.0359
2022-11-16T07:29:38.647Z,0.0364
2022-11-16T07:34:59.345Z,0.0369
2022-11-16T07:40:25.694Z,0.0451
2022-11-16T07:45:36.354Z,0.0462
2022-11-16T07:50:56.021Z,0.0464
2022-11-16T08:01:34.884Z,0.0419
2022-11-16T08:06:53.633Z,0.0531
2022-11-16T08:12:13.131Z,0.055
2022-11-16T08:17:32.099Z,0.0533
2022-11-16T08:28:11.019Z,0.0763
2022-11-16T08:38:49.185Z,0.139
2022-11-16T08:44:08.779Z,0.1479
2022-11-16T08:49:28.012Z,0.1515
2022-11-16T08:54:47.881Z,0.1268
2022-11-16T09:00:06.771Z,0.1234
2022-11-16T09:05:25.834Z,0.2094
2022-11-16T09:10:45.757Z,0.2544
2022-11-16T09:21:33.524Z,0.173
2022-11-16T09:26:43.864Z,0.1811
2022-11-16T09:37:22.776Z,0.2347
2022-11-16T09:42:41.622Z,0.1674
2022-11-16T09:48:00.310Z,0.1858
2022-11-16T09:53:19.445Z,0.2076
2022-11-16T10:03:58.340Z,0.194
2022-11-16T10:09:17.562Z,0.3074
2022-11-16T10:14:36.507Z,0.4244
2022-11-16T10:19:55.945Z,0.3674
2022-11-16T10:25:15.346Z,0.3423
2022-11-16T10:31:08.431Z,0.2679
2022-11-16T10:36:27.474Z,0.5428
2022-11-16T10:41:46.412Z,0.6721
2022-11-16T10:52:25.308Z,0.5952
2022-11-16T10:57:44.521Z,0.5528
2022-11-16T11:03:03.722Z,0.2107
2022-11-16T11:08:23.515Z,0.2191
2022-11-16T11:13:43.102Z,0.1822
2022-11-16T11:19:01.839Z,0.1298
2022-11-16T11:24:42.676Z,0.1388
2022-11-16T11:29:39.598Z,0.1451
2022-11-16T11:34:58.916Z,0.1828
2022-11-16T11:40:18.374Z,0.6591
2022-11-16T11:50:57.434Z,0.2121
2022-11-16T11:56:16.314Z,0.3813
2022-11-16T12:01:35.399Z,0.3222
2022-11-16T12:06:54.806Z,0.2929
2022-11-16T12:12:14.915Z,0.2004
2022-11-16T12:17:33.252Z,0.1447
2022-11-16T12:22:52.541Z,0.1228
2022-11-16T12:33:31.115Z,0.1271
2022-11-16T12:38:50.723Z,0.1367
2022-11-16T12:44:09.661Z,0.1416
2022-11-16T12:49:29.071Z,0.3423
2022-11-16T12:55:18.921Z,0.5533
2022-11-16T13:00:07.512Z,0.3769
2022-11-16T13:05:26.669Z,0.3118
2022-11-16T13:12:00.822Z,0.1818
2022-11-16T13:16:06.297Z,0.1841
2022-11-16T13:21:25.810Z,0.1547
2022-11-16T13:32:03.101Z,0.1802
2022-11-16T13:37:22.333Z,0.1567
2022-11-16T13:42:41.093Z,0.342
2022-11-16T13:48:00.079Z,0.3199
2022-11-16T13:58:38.478Z,0.164
2022-11-16T14:03:57.810Z,0.1343
2022-11-16T14:14:36.462Z,0.1405
2022-11-16T14:19:54.811Z,0.1843
2022-11-16T14:25:14.267Z,0.0891
2022-11-16T14:30:33.846Z,0.0921
2022-11-16T14:35:53.205Z,0.0757
2022-11-16T14:41:12.222Z,0.0641
2022-11-16T14:46:31.916Z,0.0566
2022-11-16T14:51:50.716Z,0.0509
2022-11-16T14:57:09.419Z,0.0499
2022-11-16T15:02:28.325Z,0.0495
2022-11-16T15:13:06.320Z,0.0408
2022-11-16T15:18:25.652Z,0.0383
2022-11-16T15:23:48.950Z,0.0386
2022-11-16T15:34:23.865Z,0.0247
2022-11-16T15:39:43.325Z,0.0197
2022-11-16T15:50:22.495Z,0.0036
2022-11-16T15:55:41.831Z,0
2022-11-16T16:01:01.129Z,0
2022-11-16T16:06:20.359Z,0
2022-11-16T16:11:39.280Z,0
2022-11-16T16:16:58.989Z,0
2022-11-16T16:22:17.831Z,0
2022-11-16T16:32:57.078Z,0
2022-11-16T16:38:16.638Z,0
2022-11-16T16:48:55.160Z,0
2022-11-16T16:54:14.056Z,0
2022-11-16T16:59:33.811Z,0
2022-11-16T17:05:03.140Z,0
2022-11-16T17:15:30.987Z,0
2022-11-16T17:20:50.458Z,0
2022-11-16T17:31:29.123Z,0
2022-11-16T17:36:48.139Z,0
2022-11-16T17:42:07.205Z,0
2022-11-16T17:47:26.847Z,0
2022-11-16T17:52:46.094Z,0
2022-11-16T17:58:05.131Z,0
2022-11-16T18:03:24.684Z,0
2022-11-16T18:08:43.844Z,0
2022-11-16T18:14:02.445Z,0
2022-11-16T18:19:21.431Z,0
2022-11-16T18:24:40.953Z,0
2022-11-16T18:29:59.979Z,0
2022-11-16T18:35:19.605Z,0
2022-11-16T18:40:38.484Z,0
2022-11-16T18:45:58.178Z,0
2022-11-16T18:56:36.461Z,0
2022-11-16T19:01:55.377Z,0
2022-11-16T19:07:15.906Z,0
2022-11-16T19:12:35.402Z,0
2022-11-16T19:23:12.258Z,0
2022-11-16T19:28:31.714Z,0
2022-11-16T19:33:50.711Z,0
2022-11-16T19:39:10.285Z,0
2022-11-16T19:44:29.928Z,0
2022-11-16T19:55:08.364Z,0
2022-11-16T20:00:28.058Z,0
2022-11-16T20:05:47.137Z,0
2022-11-16T20:11:06.265Z,0
2022-11-16T20:16:38.927Z,0
2022-11-16T20:21:44.820Z,0
2022-11-16T20:27:04.217Z,0
2022-11-16T20:32:23.048Z,0
2022-11-16T20:37:42.646Z,0
2022-11-16T20:43:01.410Z,0
2022-11-16T20:48:20.371Z,0
2022-11-16T20:53:39.815Z,0
2022-11-16T20:58:58.790Z,0
2022-11-16T21:04:18.049Z,0
2022-11-16T21:09:37.506Z,0
2022-11-16T21:14:57.230Z,0
2022-11-16T21:20:26.694Z,0
2022-11-16T21:25:35.519Z,0
2022-11-16T21:30:55.683Z,0
2022-11-16T21:36:14.409Z,0
2022-11-16T21:41:32.663Z,0
2022-11-16T21:46:51.975Z,0
2022-11-16T21:52:11.261Z,0
2022-11-16T21:57:30.648Z,0
2022-11-16T22:02:50.370Z,0
2022-11-16T22:08:09.594Z,0
2022-11-16T22:13:28.373Z,0
2022-11-16T22:18:47.748Z,0
2022-11-16T22:24:07.216Z,0
2022-11-16T22:29:26.608Z,0
2022-11-16T22:34:46.321Z,0
2022-11-16T22:40:06.073Z,0
2022-11-16T22:45:25.758Z,0
2022-11-16T22:50:45.299Z,0
2022-11-16T22:56:05.000Z,0
2022-11-16T23:01:23.909Z,0
2022-11-16T23:06:43.191Z,0
2022-11-16T23:12:02.342Z,0
2022-11-16T23:17:21.362Z,0
2022-11-16T23:22:40.483Z,0
2022-11-16T23:27:59.491Z,0
2022-11-16T23:33:18.653Z,0
2022-11-16T23:38:37.773Z,0
2022-11-16T23:43:57.110Z,0
2022-11-16T23:49:16.561Z,0
2022-11-16T23:54:36.535Z,0
2022-11-16T23:59:55.821Z,0
